sensor_id;sensor_type;location;lat;lon;timestamp;P1;durP1;ratioP1;P2;durP2;ratioP2
68792;SDS011;55778;54.346;10.210;2023-08-17T00:00:39;6.55;;;2.40;;
68792;SDS011;55778;54.346;10.210;2023-08-17T00:03:21;4.90;;;2.30;;
68792;SDS011;55778;54.346;10.210;2023-08-17T00:05:49;4.80;;;2.08;;
68792;SDS011;55778;54.346;10.210;2023-08-17T00:11:02;5.50;;;2.03;;
68792;SDS011;55778;54.346;10.210;2023-08-17T00:13:35;5.50;;;1.90;;
68792;SDS011;55778;54.346;10.210;2023-08-17T00:16:03;5.13;;;2.13;;
68792;SDS011;55778;54.346;10.210;2023-08-17T00:18:38;7.13;;;2.03;;
68792;SDS011;55778;54.346;10.210;2023-08-17T00:21:10;3.72;;;1.70;;
68792;SDS011;55778;54.346;10.210;2023-08-17T00:23:40;5.70;;;1.90;;
68792;SDS011;55778;54.346;10.210;2023-08-17T00:26:29;5.82;;;2.05;;
68792;SDS011;55778;54.346;10.210;2023-08-17T00:29:02;6.90;;;1.80;;
68792;SDS011;55778;54.346;10.210;2023-08-17T00:31:53;3.45;;;1.85;;
68792;SDS011;55778;54.346;10.210;2023-08-17T00:34:19;4.95;;;2.13;;
68792;SDS011;55778;54.346;10.210;2023-08-17T00:36:55;7.20;;;1.95;;
68792;SDS011;55778;54.346;10.210;2023-08-17T00:39:23;4.10;;;1.98;;
68792;SDS011;55778;54.346;10.210;2023-08-17T00:41:55;4.13;;;2.10;;
68792;SDS011;55778;54.346;10.210;2023-08-17T00:44:25;7.35;;;1.95;;
68792;SDS011;55778;54.346;10.210;2023-08-17T00:46:51;4.35;;;1.85;;
68792;SDS011;55778;54.346;10.210;2023-08-17T00:49:19;6.03;;;2.00;;
68792;SDS011;55778;54.346;10.210;2023-08-17T00:51:47;7.18;;;1.90;;
68792;SDS011;55778;54.346;10.210;2023-08-17T00:54:24;4.10;;;1.67;;
68792;SDS011;55778;54.346;10.210;2023-08-17T00:56:54;6.28;;;1.90;;
68792;SDS011;55778;54.346;10.210;2023-08-17T00:59:33;7.63;;;2.05;;
68792;SDS011;55778;54.346;10.210;2023-08-17T01:02:01;2.67;;;1.50;;
68792;SDS011;55778;54.346;10.210;2023-08-17T01:04:40;5.60;;;2.00;;
68792;SDS011;55778;54.346;10.210;2023-08-17T01:07:11;5.78;;;1.70;;
68792;SDS011;55778;54.346;10.210;2023-08-17T01:09:49;5.07;;;1.88;;
68792;SDS011;55778;54.346;10.210;2023-08-17T01:12:22;5.22;;;1.80;;
68792;SDS011;55778;54.346;10.210;2023-08-17T01:14:58;5.85;;;2.25;;
68792;SDS011;55778;54.346;10.210;2023-08-17T01:17:40;4.50;;;1.67;;
68792;SDS011;55778;54.346;10.210;2023-08-17T01:20:13;5.82;;;1.98;;
68792;SDS011;55778;54.346;10.210;2023-08-17T01:22:48;4.47;;;1.70;;
68792;SDS011;55778;54.346;10.210;2023-08-17T01:25:42;5.50;;;1.75;;
68792;SDS011;55778;54.346;10.210;2023-08-17T01:28:12;5.43;;;1.80;;
68792;SDS011;55778;54.346;10.210;2023-08-17T01:33:07;4.28;;;1.80;;
68792;SDS011;55778;54.346;10.210;2023-08-17T01:35:44;5.25;;;1.65;;
68792;SDS011;55778;54.346;10.210;2023-08-17T01:38:20;4.05;;;1.83;;
68792;SDS011;55778;54.346;10.210;2023-08-17T01:40:47;5.47;;;1.75;;
68792;SDS011;55778;54.346;10.210;2023-08-17T01:43:15;5.80;;;2.42;;
68792;SDS011;55778;54.346;10.210;2023-08-17T01:45:41;5.65;;;1.90;;
68792;SDS011;55778;54.346;10.210;2023-08-17T01:53:05;4.43;;;1.58;;
68792;SDS011;55778;54.346;10.210;2023-08-17T01:55:33;4.63;;;2.00;;
68792;SDS011;55778;54.346;10.210;2023-08-17T01:58:02;4.95;;;1.80;;
68792;SDS011;55778;54.346;10.210;2023-08-17T02:00:28;3.95;;;1.80;;
68792;SDS011;55778;54.346;10.210;2023-08-17T02:02:53;6.22;;;1.80;;
68792;SDS011;55778;54.346;10.210;2023-08-17T02:05:29;3.20;;;1.52;;
68792;SDS011;55778;54.346;10.210;2023-08-17T02:08:00;4.82;;;1.90;;
68792;SDS011;55778;54.346;10.210;2023-08-17T02:10:32;6.65;;;2.08;;
68792;SDS011;55778;54.346;10.210;2023-08-17T02:13:03;4.55;;;1.98;;
68792;SDS011;55778;54.346;10.210;2023-08-17T02:15:36;3.78;;;1.60;;
68792;SDS011;55778;54.346;10.210;2023-08-17T02:18:06;4.53;;;1.58;;
68792;SDS011;55778;54.346;10.210;2023-08-17T02:20:45;4.32;;;2.35;;
68792;SDS011;55778;54.346;10.210;2023-08-17T02:23:10;5.70;;;1.45;;
68792;SDS011;55778;54.346;10.210;2023-08-17T02:25:39;4.57;;;1.50;;
68792;SDS011;55778;54.346;10.210;2023-08-17T02:28:09;3.47;;;1.38;;
68792;SDS011;55778;54.346;10.210;2023-08-17T02:30:37;4.93;;;1.50;;
68792;SDS011;55778;54.346;10.210;2023-08-17T02:33:06;4.30;;;1.60;;
68792;SDS011;55778;54.346;10.210;2023-08-17T02:35:32;4.57;;;1.50;;
68792;SDS011;55778;54.346;10.210;2023-08-17T02:38:04;3.80;;;1.83;;
68792;SDS011;55778;54.346;10.210;2023-08-17T02:40:29;5.93;;;1.90;;
68792;SDS011;55778;54.346;10.210;2023-08-17T02:42:58;2.95;;;1.67;;
68792;SDS011;55778;54.346;10.210;2023-08-17T02:45:26;8.32;;;4.07;;
68792;SDS011;55778;54.346;10.210;2023-08-17T02:48:07;4.03;;;1.60;;
68792;SDS011;55778;54.346;10.210;2023-08-17T02:50:35;5.57;;;1.50;;
68792;SDS011;55778;54.346;10.210;2023-08-17T02:53:00;5.45;;;1.60;;
68792;SDS011;55778;54.346;10.210;2023-08-17T02:55:27;3.38;;;1.63;;
68792;SDS011;55778;54.346;10.210;2023-08-17T02:58:00;6.47;;;2.00;;
68792;SDS011;55778;54.346;10.210;2023-08-17T03:00:31;1.70;;;1.30;;
68792;SDS011;55778;54.346;10.210;2023-08-17T03:02:56;4.40;;;1.50;;
68792;SDS011;55778;54.346;10.210;2023-08-17T03:05:25;9.88;;;5.28;;
68792;SDS011;55778;54.346;10.210;2023-08-17T03:07:50;4.20;;;2.17;;
68792;SDS011;55778;54.346;10.210;2023-08-17T03:10:16;3.67;;;1.60;;
68792;SDS011;55778;54.346;10.210;2023-08-17T03:12:54;3.72;;;1.50;;
68792;SDS011;55778;54.346;10.210;2023-08-17T03:15:31;5.25;;;1.30;;
68792;SDS011;55778;54.346;10.210;2023-08-17T03:18:04;4.47;;;1.50;;
68792;SDS011;55778;54.346;10.210;2023-08-17T03:20:35;3.67;;;1.00;;
68792;SDS011;55778;54.346;10.210;2023-08-17T03:23:10;6.43;;;3.45;;
68792;SDS011;55778;54.346;10.210;2023-08-17T03:25:46;7.03;;;2.08;;
68792;SDS011;55778;54.346;10.210;2023-08-17T03:28:11;5.00;;;2.30;;
68792;SDS011;55778;54.346;10.210;2023-08-17T03:30:43;3.13;;;1.45;;
68792;SDS011;55778;54.346;10.210;2023-08-17T03:33:20;2.42;;;1.25;;
68792;SDS011;55778;54.346;10.210;2023-08-17T03:35:51;3.83;;;1.58;;
68792;SDS011;55778;54.346;10.210;2023-08-17T03:38:24;5.00;;;3.25;;
68792;SDS011;55778;54.346;10.210;2023-08-17T03:40:55;4.53;;;1.48;;
68792;SDS011;55778;54.346;10.210;2023-08-17T03:43:21;3.58;;;1.40;;
68792;SDS011;55778;54.346;10.210;2023-08-17T03:45:46;5.45;;;1.50;;
68792;SDS011;55778;54.346;10.210;2023-08-17T03:48:14;2.03;;;1.40;;
68792;SDS011;55778;54.346;10.210;2023-08-17T03:50:57;3.25;;;1.52;;
68792;SDS011;55778;54.346;10.210;2023-08-17T03:53:22;15.23;;;7.63;;
68792;SDS011;55778;54.346;10.210;2023-08-17T03:55:50;2.33;;;1.52;;
68792;SDS011;55778;54.346;10.210;2023-08-17T03:58:17;7.13;;;1.35;;
68792;SDS011;55778;54.346;10.210;2023-08-17T04:00:48;2.85;;;1.27;;
68792;SDS011;55778;54.346;10.210;2023-08-17T04:03:23;2.92;;;1.40;;
68792;SDS011;55778;54.346;10.210;2023-08-17T04:05:55;5.13;;;1.80;;
68792;SDS011;55778;54.346;10.210;2023-08-17T04:08:23;4.15;;;1.33;;
68792;SDS011;55778;54.346;10.210;2023-08-17T04:10:51;3.72;;;1.38;;
68792;SDS011;55778;54.346;10.210;2023-08-17T04:13:24;4.25;;;1.40;;
68792;SDS011;55778;54.346;10.210;2023-08-17T04:15:49;3.08;;;1.27;;
68792;SDS011;55778;54.346;10.210;2023-08-17T04:18:20;3.25;;;1.40;;
68792;SDS011;55778;54.346;10.210;2023-08-17T04:20:57;2.60;;;1.13;;
68792;SDS011;55778;54.346;10.210;2023-08-17T04:23:30;2.53;;;1.30;;
68792;SDS011;55778;54.346;10.210;2023-08-17T04:25:58;3.97;;;1.27;;
68792;SDS011;55778;54.346;10.210;2023-08-17T04:28:29;5.05;;;1.40;;
68792;SDS011;55778;54.346;10.210;2023-08-17T04:30:59;3.30;;;1.33;;
68792;SDS011;55778;54.346;10.210;2023-08-17T04:33:31;4.40;;;1.13;;
68792;SDS011;55778;54.346;10.210;2023-08-17T04:35:59;2.33;;;1.35;;
68792;SDS011;55778;54.346;10.210;2023-08-17T04:38:26;2.88;;;1.23;;
68792;SDS011;55778;54.346;10.210;2023-08-17T04:40:52;3.15;;;1.10;;
68792;SDS011;55778;54.346;10.210;2023-08-17T04:43:17;4.20;;;1.10;;
68792;SDS011;55778;54.346;10.210;2023-08-17T04:45:58;2.92;;;1.60;;
68792;SDS011;55778;54.346;10.210;2023-08-17T04:48:26;3.05;;;1.10;;
68792;SDS011;55778;54.346;10.210;2023-08-17T04:50:52;8.40;;;3.47;;
68792;SDS011;55778;54.346;10.210;2023-08-17T04:53:25;2.78;;;1.48;;
68792;SDS011;55778;54.346;10.210;2023-08-17T04:56:02;2.85;;;1.10;;
68792;SDS011;55778;54.346;10.210;2023-08-17T04:58:33;2.10;;;1.13;;
68792;SDS011;55778;54.346;10.210;2023-08-17T05:01:19;5.82;;;1.30;;
68792;SDS011;55778;54.346;10.210;2023-08-17T05:03:55;2.30;;;1.20;;
68792;SDS011;55778;54.346;10.210;2023-08-17T05:06:31;4.55;;;1.40;;
68792;SDS011;55778;54.346;10.210;2023-08-17T05:08:57;3.00;;;1.80;;
68792;SDS011;55778;54.346;10.210;2023-08-17T05:11:27;4.55;;;1.13;;
68792;SDS011;55778;54.346;10.210;2023-08-17T05:13:55;2.58;;;1.23;;
68792;SDS011;55778;54.346;10.210;2023-08-17T05:16:29;2.38;;;1.13;;
68792;SDS011;55778;54.346;10.210;2023-08-17T05:19:05;3.13;;;1.10;;
68792;SDS011;55778;54.346;10.210;2023-08-17T05:21:51;3.30;;;1.10;;
68792;SDS011;55778;54.346;10.210;2023-08-17T05:24:21;4.13;;;1.50;;
68792;SDS011;55778;54.346;10.210;2023-08-17T05:26:47;1.70;;;1.20;;
68792;SDS011;55778;54.346;10.210;2023-08-17T05:29:14;3.50;;;1.10;;
68792;SDS011;55778;54.346;10.210;2023-08-17T05:31:42;3.28;;;1.45;;
68792;SDS011;55778;54.346;10.210;2023-08-17T05:34:11;5.73;;;1.20;;
68792;SDS011;55778;54.346;10.210;2023-08-17T05:36:47;2.43;;;1.20;;
68792;SDS011;55778;54.346;10.210;2023-08-17T05:39:14;3.70;;;1.48;;
68792;SDS011;55778;54.346;10.210;2023-08-17T05:41:40;3.50;;;1.40;;
68792;SDS011;55778;54.346;10.210;2023-08-17T05:44:06;2.25;;;1.15;;
68792;SDS011;55778;54.346;10.210;2023-08-17T05:46:35;4.38;;;1.30;;
68792;SDS011;55778;54.346;10.210;2023-08-17T05:49:00;6.15;;;1.75;;
68792;SDS011;55778;54.346;10.210;2023-08-17T05:51:26;2.83;;;1.50;;
68792;SDS011;55778;54.346;10.210;2023-08-17T05:53:52;3.00;;;1.20;;
68792;SDS011;55778;54.346;10.210;2023-08-17T05:56:17;3.47;;;1.27;;
68792;SDS011;55778;54.346;10.210;2023-08-17T05:58:43;2.72;;;1.20;;
68792;SDS011;55778;54.346;10.210;2023-08-17T06:01:09;3.67;;;1.63;;
68792;SDS011;55778;54.346;10.210;2023-08-17T06:03:36;2.90;;;1.27;;
68792;SDS011;55778;54.346;10.210;2023-08-17T06:06:02;4.28;;;1.30;;
68792;SDS011;55778;54.346;10.210;2023-08-17T06:08:28;3.40;;;1.38;;
68792;SDS011;55778;54.346;10.210;2023-08-17T06:10:54;3.38;;;1.27;;
68792;SDS011;55778;54.346;10.210;2023-08-17T06:13:20;3.15;;;1.30;;
68792;SDS011;55778;54.346;10.210;2023-08-17T06:15:45;2.40;;;1.40;;
68792;SDS011;55778;54.346;10.210;2023-08-17T06:18:10;2.80;;;1.30;;
68792;SDS011;55778;54.346;10.210;2023-08-17T06:20:36;4.57;;;1.40;;
68792;SDS011;55778;54.346;10.210;2023-08-17T06:23:01;4.72;;;1.25;;
68792;SDS011;55778;54.346;10.210;2023-08-17T06:25:27;2.78;;;1.50;;
68792;SDS011;55778;54.346;10.210;2023-08-17T06:27:52;2.22;;;1.40;;
68792;SDS011;55778;54.346;10.210;2023-08-17T06:30:18;11.23;;;1.75;;
68792;SDS011;55778;54.346;10.210;2023-08-17T06:32:43;2.55;;;1.40;;
68792;SDS011;55778;54.346;10.210;2023-08-17T06:35:09;3.72;;;1.58;;
68792;SDS011;55778;54.346;10.210;2023-08-17T06:37:35;4.32;;;1.65;;
68792;SDS011;55778;54.346;10.210;2023-08-17T06:40:02;2.90;;;1.63;;
68792;SDS011;55778;54.346;10.210;2023-08-17T06:42:28;3.92;;;1.63;;
68792;SDS011;55778;54.346;10.210;2023-08-17T06:44:53;3.85;;;1.30;;
68792;SDS011;55778;54.346;10.210;2023-08-17T06:47:19;4.28;;;1.42;;
68792;SDS011;55778;54.346;10.210;2023-08-17T06:49:44;3.20;;;1.30;;
68792;SDS011;55778;54.346;10.210;2023-08-17T06:52:10;5.25;;;1.50;;
68792;SDS011;55778;54.346;10.210;2023-08-17T06:54:35;4.35;;;1.50;;
68792;SDS011;55778;54.346;10.210;2023-08-17T06:57:01;2.13;;;1.10;;
68792;SDS011;55778;54.346;10.210;2023-08-17T06:59:26;2.20;;;1.40;;
68792;SDS011;55778;54.346;10.210;2023-08-17T07:01:52;4.13;;;1.20;;
68792;SDS011;55778;54.346;10.210;2023-08-17T07:04:17;4.35;;;1.40;;
68792;SDS011;55778;54.346;10.210;2023-08-17T07:06:43;4.03;;;1.58;;
68792;SDS011;55778;54.346;10.210;2023-08-17T07:09:08;1.90;;;1.13;;
68792;SDS011;55778;54.346;10.210;2023-08-17T07:11:37;3.60;;;1.40;;
68792;SDS011;55778;54.346;10.210;2023-08-17T07:14:03;3.90;;;1.42;;
68792;SDS011;55778;54.346;10.210;2023-08-17T07:16:28;3.22;;;1.40;;
68792;SDS011;55778;54.346;10.210;2023-08-17T07:18:54;3.88;;;1.50;;
68792;SDS011;55778;54.346;10.210;2023-08-17T07:21:19;6.38;;;1.50;;
68792;SDS011;55778;54.346;10.210;2023-08-17T07:23:45;4.47;;;1.45;;
68792;SDS011;55778;54.346;10.210;2023-08-17T07:26:11;2.80;;;1.33;;
68792;SDS011;55778;54.346;10.210;2023-08-17T07:28:39;2.58;;;1.40;;
68792;SDS011;55778;54.346;10.210;2023-08-17T07:31:04;3.65;;;1.40;;
68792;SDS011;55778;54.346;10.210;2023-08-17T07:33:31;4.47;;;1.20;;
68792;SDS011;55778;54.346;10.210;2023-08-17T07:35:56;5.13;;;1.60;;
68792;SDS011;55778;54.346;10.210;2023-08-17T07:38:23;4.47;;;1.90;;
68792;SDS011;55778;54.346;10.210;2023-08-17T07:40:49;2.30;;;1.15;;
68792;SDS011;55778;54.346;10.210;2023-08-17T07:43:14;3.35;;;1.48;;
68792;SDS011;55778;54.346;10.210;2023-08-17T07:45:39;3.45;;;1.38;;
68792;SDS011;55778;54.346;10.210;2023-08-17T07:48:05;4.38;;;1.40;;
68792;SDS011;55778;54.346;10.210;2023-08-17T07:50:31;3.30;;;1.30;;
68792;SDS011;55778;54.346;10.210;2023-08-17T07:52:56;5.40;;;1.50;;
68792;SDS011;55778;54.346;10.210;2023-08-17T07:55:22;3.80;;;1.30;;
68792;SDS011;55778;54.346;10.210;2023-08-17T07:57:48;1.60;;;1.10;;
68792;SDS011;55778;54.346;10.210;2023-08-17T08:00:13;5.28;;;1.38;;
68792;SDS011;55778;54.346;10.210;2023-08-17T08:02:39;3.38;;;1.20;;
68792;SDS011;55778;54.346;10.210;2023-08-17T08:05:05;5.47;;;1.33;;
68792;SDS011;55778;54.346;10.210;2023-08-17T08:07:31;3.38;;;1.38;;
68792;SDS011;55778;54.346;10.210;2023-08-17T08:09:57;2.58;;;1.40;;
68792;SDS011;55778;54.346;10.210;2023-08-17T08:12:22;2.40;;;1.20;;
68792;SDS011;55778;54.346;10.210;2023-08-17T08:14:48;3.55;;;1.52;;
68792;SDS011;55778;54.346;10.210;2023-08-17T08:17:14;2.50;;;1.30;;
68792;SDS011;55778;54.346;10.210;2023-08-17T08:19:39;3.45;;;1.10;;
68792;SDS011;55778;54.346;10.210;2023-08-17T08:22:05;3.50;;;1.10;;
68792;SDS011;55778;54.346;10.210;2023-08-17T08:24:30;3.40;;;1.08;;
68792;SDS011;55778;54.346;10.210;2023-08-17T08:26:59;4.10;;;1.67;;
68792;SDS011;55778;54.346;10.210;2023-08-17T08:29:25;2.72;;;1.40;;
68792;SDS011;55778;54.346;10.210;2023-08-17T08:31:51;4.63;;;1.20;;
68792;SDS011;55778;54.346;10.210;2023-08-17T08:34:16;2.78;;;1.30;;
68792;SDS011;55778;54.346;10.210;2023-08-17T08:36:42;2.90;;;1.48;;
68792;SDS011;55778;54.346;10.210;2023-08-17T08:39:07;4.13;;;1.38;;
68792;SDS011;55778;54.346;10.210;2023-08-17T08:41:32;5.20;;;1.30;;
68792;SDS011;55778;54.346;10.210;2023-08-17T08:43:58;6.45;;;1.50;;
68792;SDS011;55778;54.346;10.210;2023-08-17T08:46:24;4.53;;;1.35;;
68792;SDS011;55778;54.346;10.210;2023-08-17T08:48:53;4.93;;;1.42;;
68792;SDS011;55778;54.346;10.210;2023-08-17T08:51:22;3.03;;;1.20;;
68792;SDS011;55778;54.346;10.210;2023-08-17T08:53:53;3.88;;;1.52;;
68792;SDS011;55778;54.346;10.210;2023-08-17T08:56:25;2.65;;;1.30;;
68792;SDS011;55778;54.346;10.210;2023-08-17T08:58:51;4.45;;;1.60;;
68792;SDS011;55778;54.346;10.210;2023-08-17T09:01:18;5.20;;;1.67;;
68792;SDS011;55778;54.346;10.210;2023-08-17T09:03:44;4.13;;;1.83;;
68792;SDS011;55778;54.346;10.210;2023-08-17T09:06:14;4.53;;;1.60;;
68792;SDS011;55778;54.346;10.210;2023-08-17T09:08:41;4.35;;;1.50;;
68792;SDS011;55778;54.346;10.210;2023-08-17T09:11:08;4.78;;;1.85;;
68792;SDS011;55778;54.346;10.210;2023-08-17T09:13:34;2.92;;;1.75;;
68792;SDS011;55778;54.346;10.210;2023-08-17T09:15:59;7.63;;;1.77;;
68792;SDS011;55778;54.346;10.210;2023-08-17T09:18:27;4.30;;;1.70;;
68792;SDS011;55778;54.346;10.210;2023-08-17T09:20:53;5.40;;;2.17;;
68792;SDS011;55778;54.346;10.210;2023-08-17T09:23:20;4.13;;;1.88;;
68792;SDS011;55778;54.346;10.210;2023-08-17T09:25:48;5.38;;;2.50;;
68792;SDS011;55778;54.346;10.210;2023-08-17T09:28:15;5.55;;;1.70;;
68792;SDS011;55778;54.346;10.210;2023-08-17T09:30:52;6.15;;;2.05;;
68792;SDS011;55778;54.346;10.210;2023-08-17T09:33:26;6.03;;;2.10;;
68792;SDS011;55778;54.346;10.210;2023-08-17T09:35:53;5.90;;;2.08;;
68792;SDS011;55778;54.346;10.210;2023-08-17T09:38:20;4.15;;;1.75;;
68792;SDS011;55778;54.346;10.210;2023-08-17T09:40:45;5.25;;;2.03;;
68792;SDS011;55778;54.346;10.210;2023-08-17T09:43:11;5.82;;;1.92;;
68792;SDS011;55778;54.346;10.210;2023-08-17T09:45:38;4.57;;;1.90;;
68792;SDS011;55778;54.346;10.210;2023-08-17T09:48:05;5.93;;;1.92;;
68792;SDS011;55778;54.346;10.210;2023-08-17T09:50:34;4.65;;;1.98;;
68792;SDS011;55778;54.346;10.210;2023-08-17T09:53:01;6.85;;;2.35;;
68792;SDS011;55778;54.346;10.210;2023-08-17T09:55:30;6.13;;;2.22;;
68792;SDS011;55778;54.346;10.210;2023-08-17T09:57:58;4.38;;;2.47;;
68792;SDS011;55778;54.346;10.210;2023-08-17T10:00:24;9.75;;;2.40;;
68792;SDS011;55778;54.346;10.210;2023-08-17T10:02:50;7.45;;;2.60;;
68792;SDS011;55778;54.346;10.210;2023-08-17T10:05:19;6.45;;;2.40;;
68792;SDS011;55778;54.346;10.210;2023-08-17T10:07:51;6.50;;;3.10;;
68792;SDS011;55778;54.346;10.210;2023-08-17T10:10:22;3.97;;;2.38;;
68792;SDS011;55778;54.346;10.210;2023-08-17T10:13:12;7.82;;;2.97;;
68792;SDS011;55778;54.346;10.210;2023-08-17T10:15:41;6.38;;;2.50;;
68792;SDS011;55778;54.346;10.210;2023-08-17T10:18:17;5.63;;;2.60;;
68792;SDS011;55778;54.346;10.210;2023-08-17T10:20:54;6.75;;;3.42;;
68792;SDS011;55778;54.346;10.210;2023-08-17T10:23:26;7.25;;;2.90;;
68792;SDS011;55778;54.346;10.210;2023-08-17T10:25:53;5.95;;;2.50;;
68792;SDS011;55778;54.346;10.210;2023-08-17T10:28:19;5.22;;;2.60;;
68792;SDS011;55778;54.346;10.210;2023-08-17T10:30:46;6.47;;;3.00;;
68792;SDS011;55778;54.346;10.210;2023-08-17T10:33:13;7.95;;;2.83;;
68792;SDS011;55778;54.346;10.210;2023-08-17T10:35:40;4.68;;;2.72;;
68792;SDS011;55778;54.346;10.210;2023-08-17T10:38:06;6.50;;;2.90;;
68792;SDS011;55778;54.346;10.210;2023-08-17T10:40:36;8.35;;;3.22;;
68792;SDS011;55778;54.346;10.210;2023-08-17T10:43:04;4.68;;;2.60;;
68792;SDS011;55778;54.346;10.210;2023-08-17T10:45:33;6.93;;;2.67;;
68792;SDS011;55778;54.346;10.210;2023-08-17T10:50:32;5.63;;;2.50;;
68792;SDS011;55778;54.346;10.210;2023-08-17T10:52:59;6.13;;;2.35;;
68792;SDS011;55778;54.346;10.210;2023-08-17T10:55:38;7.82;;;2.70;;
68792;SDS011;55778;54.346;10.210;2023-08-17T10:58:05;6.75;;;2.38;;
68792;SDS011;55778;54.346;10.210;2023-08-17T11:00:33;5.93;;;3.15;;
68792;SDS011;55778;54.346;10.210;2023-08-17T11:03:05;6.47;;;3.10;;
68792;SDS011;55778;54.346;10.210;2023-08-17T11:05:42;9.40;;;3.42;;
68792;SDS011;55778;54.346;10.210;2023-08-17T11:08:09;5.05;;;2.80;;
68792;SDS011;55778;54.346;10.210;2023-08-17T11:10:36;7.65;;;3.20;;
68792;SDS011;55778;54.346;10.210;2023-08-17T11:13:03;6.28;;;2.95;;
68792;SDS011;55778;54.346;10.210;2023-08-17T11:15:39;7.10;;;2.60;;
68792;SDS011;55778;54.346;10.210;2023-08-17T11:18:10;7.07;;;2.85;;
68792;SDS011;55778;54.346;10.210;2023-08-17T11:20:37;3.90;;;3.00;;
68792;SDS011;55778;54.346;10.210;2023-08-17T11:23:04;5.75;;;2.83;;
68792;SDS011;55778;54.346;10.210;2023-08-17T11:25:31;6.75;;;2.90;;
68792;SDS011;55778;54.346;10.210;2023-08-17T11:27:58;6.90;;;3.08;;
68792;SDS011;55778;54.346;10.210;2023-08-17T11:30:25;8.25;;;3.45;;
68792;SDS011;55778;54.346;10.210;2023-08-17T11:32:52;9.05;;;4.13;;
68792;SDS011;55778;54.346;10.210;2023-08-17T11:35:18;5.47;;;2.60;;
68792;SDS011;55778;54.346;10.210;2023-08-17T11:37:44;9.95;;;3.70;;
68792;SDS011;55778;54.346;10.210;2023-08-17T11:40:11;6.18;;;2.90;;
68792;SDS011;55778;54.346;10.210;2023-08-17T11:42:37;5.97;;;2.80;;
68792;SDS011;55778;54.346;10.210;2023-08-17T11:45:02;7.35;;;2.83;;
68792;SDS011;55778;54.346;10.210;2023-08-17T11:47:29;6.82;;;2.65;;
68792;SDS011;55778;54.346;10.210;2023-08-17T11:50:01;6.38;;;2.70;;
68792;SDS011;55778;54.346;10.210;2023-08-17T11:52:28;8.50;;;3.05;;
68792;SDS011;55778;54.346;10.210;2023-08-17T11:54:57;5.35;;;2.75;;
68792;SDS011;55778;54.346;10.210;2023-08-17T11:57:22;6.22;;;3.67;;
68792;SDS011;55778;54.346;10.210;2023-08-17T11:59:48;6.60;;;3.00;;
68792;SDS011;55778;54.346;10.210;2023-08-17T12:02:13;8.20;;;2.70;;
68792;SDS011;55778;54.346;10.210;2023-08-17T12:04:39;5.53;;;2.90;;
68792;SDS011;55778;54.346;10.210;2023-08-17T12:07:04;6.47;;;2.90;;
68792;SDS011;55778;54.346;10.210;2023-08-17T12:09:33;8.82;;;2.92;;
68792;SDS011;55778;54.346;10.210;2023-08-17T12:11:59;9.20;;;3.90;;
68792;SDS011;55778;54.346;10.210;2023-08-17T12:14:26;8.55;;;3.60;;
68792;SDS011;55778;54.346;10.210;2023-08-17T12:16:53;6.80;;;3.17;;
68792;SDS011;55778;54.346;10.210;2023-08-17T12:19:19;8.23;;;3.15;;
68792;SDS011;55778;54.346;10.210;2023-08-17T12:21:45;5.70;;;2.80;;
68792;SDS011;55778;54.346;10.210;2023-08-17T12:24:13;6.10;;;2.95;;
68792;SDS011;55778;54.346;10.210;2023-08-17T12:26:42;5.15;;;2.97;;
68792;SDS011;55778;54.346;10.210;2023-08-17T12:29:09;9.82;;;3.42;;
68792;SDS011;55778;54.346;10.210;2023-08-17T12:31:34;5.63;;;2.95;;
68792;SDS011;55778;54.346;10.210;2023-08-17T12:34:00;7.63;;;3.03;;
68792;SDS011;55778;54.346;10.210;2023-08-17T12:36:26;4.68;;;2.50;;
68792;SDS011;55778;54.346;10.210;2023-08-17T12:38:51;6.38;;;2.85;;
68792;SDS011;55778;54.346;10.210;2023-08-17T12:41:17;6.97;;;2.70;;
68792;SDS011;55778;54.346;10.210;2023-08-17T12:43:43;7.75;;;3.03;;
68792;SDS011;55778;54.346;10.210;2023-08-17T12:46:08;6.40;;;2.83;;
68792;SDS011;55778;54.346;10.210;2023-08-17T12:48:34;7.18;;;2.78;;
68792;SDS011;55778;54.346;10.210;2023-08-17T12:50:59;7.60;;;2.50;;
68792;SDS011;55778;54.346;10.210;2023-08-17T12:53:25;7.07;;;3.17;;
68792;SDS011;55778;54.346;10.210;2023-08-17T12:55:50;8.38;;;3.65;;
68792;SDS011;55778;54.346;10.210;2023-08-17T12:58:15;6.22;;;3.00;;
68792;SDS011;55778;54.346;10.210;2023-08-17T13:00:41;6.30;;;2.90;;
68792;SDS011;55778;54.346;10.210;2023-08-17T13:03:06;9.57;;;4.53;;
68792;SDS011;55778;54.346;10.210;2023-08-17T13:05:32;8.15;;;3.22;;
68792;SDS011;55778;54.346;10.210;2023-08-17T13:07:58;7.28;;;3.05;;
68792;SDS011;55778;54.346;10.210;2023-08-17T13:10:23;8.75;;;3.47;;
68792;SDS011;55778;54.346;10.210;2023-08-17T13:12:49;6.55;;;3.38;;
68792;SDS011;55778;54.346;10.210;2023-08-17T13:15:19;12.80;;;4.30;;
68792;SDS011;55778;54.346;10.210;2023-08-17T13:17:44;10.18;;;3.70;;
68792;SDS011;55778;54.346;10.210;2023-08-17T13:20:10;9.25;;;3.80;;
68792;SDS011;55778;54.346;10.210;2023-08-17T13:22:36;10.18;;;4.10;;
68792;SDS011;55778;54.346;10.210;2023-08-17T13:25:01;7.95;;;4.00;;
68792;SDS011;55778;54.346;10.210;2023-08-17T13:27:27;7.72;;;3.35;;
68792;SDS011;55778;54.346;10.210;2023-08-17T13:29:52;5.45;;;3.67;;
68792;SDS011;55778;54.346;10.210;2023-08-17T13:32:18;5.47;;;3.10;;
68792;SDS011;55778;54.346;10.210;2023-08-17T13:34:43;8.82;;;3.63;;
68792;SDS011;55778;54.346;10.210;2023-08-17T13:37:09;10.10;;;3.80;;
68792;SDS011;55778;54.346;10.210;2023-08-17T13:39:34;9.30;;;3.78;;
68792;SDS011;55778;54.346;10.210;2023-08-17T13:41:59;7.85;;;3.72;;
68792;SDS011;55778;54.346;10.210;2023-08-17T13:44:25;10.63;;;4.13;;
68792;SDS011;55778;54.346;10.210;2023-08-17T13:46:50;6.78;;;3.50;;
68792;SDS011;55778;54.346;10.210;2023-08-17T13:49:16;9.57;;;4.88;;
68792;SDS011;55778;54.346;10.210;2023-08-17T13:51:41;7.97;;;4.00;;
68792;SDS011;55778;54.346;10.210;2023-08-17T13:54:06;9.38;;;3.88;;
68792;SDS011;55778;54.346;10.210;2023-08-17T13:56:32;9.50;;;4.25;;
68792;SDS011;55778;54.346;10.210;2023-08-17T13:58:57;12.48;;;5.28;;
68792;SDS011;55778;54.346;10.210;2023-08-17T14:01:23;6.25;;;4.03;;
68792;SDS011;55778;54.346;10.210;2023-08-17T14:03:48;7.72;;;3.75;;
68792;SDS011;55778;54.346;10.210;2023-08-17T14:06:13;11.77;;;4.13;;
68792;SDS011;55778;54.346;10.210;2023-08-17T14:08:40;8.27;;;4.18;;
68792;SDS011;55778;54.346;10.210;2023-08-17T14:11:09;10.18;;;3.70;;
68792;SDS011;55778;54.346;10.210;2023-08-17T14:13:34;7.18;;;3.80;;
68792;SDS011;55778;54.346;10.210;2023-08-17T14:16:01;13.43;;;4.20;;
68792;SDS011;55778;54.346;10.210;2023-08-17T14:18:27;8.10;;;3.83;;
68792;SDS011;55778;54.346;10.210;2023-08-17T14:20:53;7.93;;;3.72;;
68792;SDS011;55778;54.346;10.210;2023-08-17T14:23:18;10.93;;;4.10;;
68792;SDS011;55778;54.346;10.210;2023-08-17T14:25:44;9.60;;;4.43;;
68792;SDS011;55778;54.346;10.210;2023-08-17T14:28:09;8.15;;;3.92;;
68792;SDS011;55778;54.346;10.210;2023-08-17T14:30:34;10.60;;;5.07;;
68792;SDS011;55778;54.346;10.210;2023-08-17T14:33:00;6.90;;;4.60;;
68792;SDS011;55778;54.346;10.210;2023-08-17T14:35:26;12.77;;;4.82;;
68792;SDS011;55778;54.346;10.210;2023-08-17T14:37:52;8.10;;;4.50;;
68792;SDS011;55778;54.346;10.210;2023-08-17T14:40:18;10.90;;;4.72;;
68792;SDS011;55778;54.346;10.210;2023-08-17T14:42:44;15.68;;;6.80;;
68792;SDS011;55778;54.346;10.210;2023-08-17T14:45:11;15.82;;;5.93;;
68792;SDS011;55778;54.346;10.210;2023-08-17T14:47:38;12.10;;;5.15;;
68792;SDS011;55778;54.346;10.210;2023-08-17T14:50:04;12.15;;;5.30;;
68792;SDS011;55778;54.346;10.210;2023-08-17T14:52:30;10.35;;;5.63;;